Time;durP1;ratioP1;P1;durP2;ratioP2;P2;SDS_P1;SDS_P2;PMS_P1;PMS_P2;Temp;Humidity;BMP_temperature;BMP_pressure;BME280_temperature;BME280_humidity;BME280_pressure;Samples;Min_cycle;Max_cycle;Signal;HPM_P1;HPM_P2
2024/01/23 00:00:12;;;;;;;;;;;17.10;60.60;;;;;;5038375;28;1378;-68
2024/01/23 00:02:38;;;;;;;;;;;17.10;61.30;;;;;;5045792;28;1475;-68
2024/01/23 00:05:03;;;;;;;;;;;17.10;60.60;;;;;;5038974;28;1459;-69
2024/01/23 00:07:30;;;;;;;;;;;17.10;60.60;;;;;;5037759;28;2015;-68
2024/01/23 00:09:55;;;;;;;;;;;17.10;60.60;;;;;;5039528;28;1457;-67
2024/01/23 00:12:21;;;;;;;;;;;17.10;60.70;;;;;;5036902;28;1605;-68
2024/01/23 00:14:46;;;;;;;;;;;17.10;60.70;;;;;;5037131;28;1611;-69
2024/01/23 00:17:12;;;;;;;;;;;17.00;60.60;;;;;;5070520;28;1327;-67
2024/01/23 00:19:37;;;;;;;;;;;17.10;60.70;;;;;;5039185;28;1239;-68
2024/01/23 00:22:03;;;;;;;;;;;17.10;60.70;;;;;;5041246;28;1179;-68
2024/01/23 00:24:28;;;;;;;;;;;17.10;60.80;;;;;;5037939;28;1251;-67
2024/01/23 00:26:54;;;;;;;;;;;17.00;60.70;;;;;;5039776;28;1969;-69
2024/01/23 00:29:19;;;;;;;;;;;17.00;60.70;;;;;;5037836;28;1628;-68
2024/01/23 00:31:45;;;;;;;;;;;17.00;60.70;;;;;;5040218;28;1398;-67
2024/01/23 00:34:11;;;;;;;;;;;17.00;60.70;;;;;;5034478;28;1466;-67
2024/01/23 00:36:36;;;;;;;;;;;17.00;60.70;;;;;;5046148;28;1457;-68
2024/01/23 00:39:02;;;;;;;;;;;17.00;60.70;;;;;;5039240;28;1581;-68
2024/01/23 00:41:27;;;;;;;;;;;17.00;60.80;;;;;;5039041;28;1552;-69
2024/01/23 00:43:53;;;;;;;;;;;17.00;60.80;;;;;;5039071;28;1383;-67
2024/01/23 00:46:18;;;;;;;;;;;17.00;60.80;;;;;;5035371;28;1902;-68
2024/01/23 00:48:43;;;;;;;;;;;17.00;60.80;;;;;;5039745;28;1485;-68
2024/01/23 00:51:09;;;;;;;;;;;17.00;60.80;;;;;;5041139;28;1315;-67
2024/01/23 00:53:35;;;;;;;;;;;17.00;60.80;;;;;;5035858;28;1469;-67
2024/01/23 00:56:00;;;;;;;;;;;17.00;60.80;;;;;;5041325;28;1468;-67
2024/01/23 00:58:26;;;;;;;;;;;17.00;60.90;;;;;;5071173;28;1484;-70
2024/01/23 01:00:51;;;;;;;;;;;17.00;60.80;;;;;;5037421;28;1429;-67
2024/01/23 01:03:17;;;;;;;;;;;17.00;60.90;;;;;;5033792;28;1660;-67
2024/01/23 01:05:42;;;;;;;;;;;17.00;60.90;;;;;;5045625;28;1486;-67
2024/01/23 01:08:08;;;;;;;;;;;17.00;60.90;;;;;;5037269;28;1910;-68
2024/01/23 01:10:33;;;;;;;;;;;17.00;61.00;;;;;;5070305;28;1117;-69
2024/01/23 01:12:59;;;;;;;;;;;17.00;60.90;;;;;;5038492;28;1261;-68
2024/01/23 01:15:27;;;;;;;;;;;17.00;60.90;;;;;;5036913;28;1394;-69
2024/01/23 01:17:53;;;;;;;;;;;17.00;60.90;;;;;;5038580;28;1417;-68
2024/01/23 01:20:18;;;;;;;;;;;17.00;61.00;;;;;;5038181;28;1295;-67
2024/01/23 01:22:43;;;;;;;;;;;17.00;61.00;;;;;;5067243;28;1338;-68
2024/01/23 01:25:09;;;;;;;;;;;17.00;61.00;;;;;;5068400;28;1418;-68
2024/01/23 01:27:34;;;;;;;;;;;17.00;61.00;;;;;;5067324;28;1898;-69
2024/01/23 01:30:00;;;;;;;;;;;17.00;61.00;;;;;;5038485;28;1552;-68
2024/01/23 01:32:25;;;;;;;;;;;17.00;61.00;;;;;;5040008;28;1642;-68
2024/01/23 01:34:51;;;;;;;;;;;16.90;61.00;;;;;;5039115;28;1445;-68
2024/01/23 01:37:16;;;;;;;;;;;17.00;61.00;;;;;;5036614;28;1410;-67
2024/01/23 01:39:42;;;;;;;;;;;17.00;61.10;;;;;;5040285;28;1590;-67
2024/01/23 01:42:08;;;;;;;;;;;16.90;61.00;;;;;;5039322;28;1832;-67
2024/01/23 01:44:34;;;;;;;;;;;16.90;61.00;;;;;;5042392;28;1242;-68
2024/01/23 01:46:59;;;;;;;;;;;16.90;61.00;;;;;;5072104;28;1898;-68
2024/01/23 01:49:25;;;;;;;;;;;16.90;61.00;;;;;;5048284;28;1826;-67
2024/01/23 01:51:50;;;;;;;;;;;16.90;61.00;;;;;;5040874;28;1243;-67
2024/01/23 01:54:16;;;;;;;;;;;16.90;61.10;;;;;;5074162;28;1626;-67
2024/01/23 01:56:42;;;;;;;;;;;16.90;61.10;;;;;;5044846;28;1386;-68
2024/01/23 01:59:09;;;;;;;;;;;16.90;61.10;;;;;;5038018;28;1445;-68
2024/01/23 02:01:34;;;;;;;;;;;16.90;61.10;;;;;;5039139;28;951;-68
2024/01/23 02:04:00;;;;;;;;;;;16.90;61.10;;;;;;5041265;28;1209;-68
2024/01/23 02:06:25;;;;;;;;;;;16.90;61.10;;;;;;5043472;28;1910;-68
2024/01/23 02:08:51;;;;;;;;;;;16.90;61.20;;;;;;5042445;28;1363;-67
2024/01/23 02:11:16;;;;;;;;;;;16.90;61.10;;;;;;5044458;28;1308;-67
2024/01/23 02:13:42;;;;;;;;;;;16.90;61.20;;;;;;5041977;28;1369;-68
2024/01/23 02:16:07;;;;;;;;;;;16.90;61.20;;;;;;5040438;28;1390;-67
2024/01/23 02:18:33;;;;;;;;;;;16.90;61.20;;;;;;5043660;28;1570;-68
2024/01/23 02:20:58;;;;;;;;;;;16.90;61.20;;;;;;5042567;28;1479;-69
2024/01/23 02:23:27;;;;;;;;;;;16.90;61.20;;;;;;5043415;28;1426;-67
2024/01/23 02:25:52;;;;;;;;;;;16.90;61.20;;;;;;5043460;28;1906;-67
2024/01/23 02:28:17;;;;;;;;;;;16.90;61.20;;;;;;5040849;28;1569;-67
2024/01/23 02:30:43;;;;;;;;;;;16.90;61.20;;;;;;5044040;28;1518;-67
2024/01/23 02:33:08;;;;;;;;;;;16.90;61.20;;;;;;5045032;28;1537;-68
2024/01/23 02:35:34;;;;;;;;;;;16.90;61.20;;;;;;5044667;28;1405;-66
2024/01/23 02:37:59;;;;;;;;;;;16.90;61.30;;;;;;5045670;28;1740;-66
2024/01/23 02:40:25;;;;;;;;;;;16.90;61.30;;;;;;5043757;28;1544;-67
2024/01/23 02:42:50;;;;;;;;;;;16.90;61.30;;;;;;5045739;28;1531;-68
2024/01/23 02:45:16;;;;;;;;;;;16.90;61.30;;;;;;5044480;28;1470;-65
2024/01/23 02:47:41;;;;;;;;;;;16.90;61.30;;;;;;5043945;28;1894;-66
2024/01/23 02:50:07;;;;;;;;;;;16.90;61.30;;;;;;5044071;28;1441;-68
2024/01/23 02:52:33;;;;;;;;;;;16.90;61.40;;;;;;5073320;28;1352;-67
2024/01/23 02:54:58;;;;;;;;;;;16.90;61.30;;;;;;5044780;28;1440;-67
2024/01/23 02:57:24;;;;;;;;;;;16.90;61.40;;;;;;5046007;28;1526;-68
2024/01/23 02:59:49;;;;;;;;;;;16.90;61.40;;;;;;5040374;28;1410;-66
2024/01/23 03:02:15;;;;;;;;;;;16.90;61.40;;;;;;5038676;28;1443;-68
2024/01/23 03:04:40;;;;;;;;;;;16.90;61.40;;;;;;5038740;28;1439;-65
2024/01/23 03:07:07;;;;;;;;;;;16.90;61.40;;;;;;5054789;28;1981;-66
2024/01/23 03:09:33;;;;;;;;;;;16.90;61.40;;;;;;5038228;28;1365;-67
2024/01/23 03:11:58;;;;;;;;;;;16.90;61.40;;;;;;5046559;28;1453;-67
2024/01/23 03:14:23;;;;;;;;;;;16.90;61.40;;;;;;5042056;28;1663;-68
2024/01/23 03:16:49;;;;;;;;;;;16.80;61.30;;;;;;5037250;28;1339;-67
2024/01/23 03:19:15;;;;;;;;;;;16.80;61.40;;;;;;5047185;28;1407;-66
2024/01/23 03:21:40;;;;;;;;;;;16.90;61.50;;;;;;5040401;28;1259;-66
2024/01/23 03:24:06;;;;;;;;;;;16.90;61.50;;;;;;5037096;28;1341;-68
2024/01/23 03:26:32;;;;;;;;;;;16.90;62.20;;;;;;5039165;28;1883;-68
2024/01/23 03:28:57;;;;;;;;;;;16.80;61.50;;;;;;5040694;28;1379;-67
2024/01/23 03:31:22;;;;;;;;;;;16.80;61.40;;;;;;5040826;28;864;-67
2024/01/23 03:33:48;;;;;;;;;;;16.80;61.40;;;;;;5039437;28;916;-67
2024/01/23 03:36:13;;;;;;;;;;;16.80;61.40;;;;;;5040798;28;1350;-66
2024/01/23 03:38:39;;;;;;;;;;;16.80;61.50;;;;;;5039344;28;1139;-66
2024/01/23 03:41:04;;;;;;;;;;;16.80;61.50;;;;;;5038213;28;1115;-67
2024/01/23 03:43:30;;;;;;;;;;;16.80;61.50;;;;;;5041638;28;1443;-67
2024/01/23 03:45:55;;;;;;;;;;;16.80;61.50;;;;;;5038186;28;1902;-66
2024/01/23 03:48:21;;;;;;;;;;;16.80;61.50;;;;;;5036845;28;1243;-67
2024/01/23 03:50:46;;;;;;;;;;;16.80;61.50;;;;;;5036278;28;1445;-68
2024/01/23 03:53:12;;;;;;;;;;;16.80;61.50;;;;;;5038094;28;1354;-67
2024/01/23 03:55:38;;;;;;;;;;;16.80;61.50;;;;;;5038640;28;1388;-67
2024/01/23 03:58:03;;;;;;;;;;;16.80;61.50;;;;;;5038352;28;1536;-67
2024/01/23 04:00:29;;;;;;;;;;;16.80;61.50;;;;;;5041530;28;1641;-68
2024/01/23 04:02:54;;;;;;;;;;;16.80;61.50;;;;;;5036710;28;1536;-68
2024/01/23 04:05:20;;;;;;;;;;;16.80;61.50;;;;;;5039752;28;1886;-65
2024/01/23 04:07:47;;;;;;;;;;;16.80;61.60;;;;;;5038101;28;1919;-64
2024/01/23 04:10:13;;;;;;;;;;;16.80;61.60;;;;;;5039392;28;1555;-66
2024/01/23 04:12:38;;;;;;;;;;;16.80;61.60;;;;;;5038100;28;1356;-66
2024/01/23 04:15:05;;;;;;;;;;;16.80;61.60;;;;;;5046204;28;1371;-68
2024/01/23 04:17:30;;;;;;;;;;;16.80;61.60;;;;;;5036467;28;1177;-66
2024/01/23 04:19:56;;;;;;;;;;;16.80;61.60;;;;;;5037055;28;1351;-67
2024/01/23 04:22:21;;;;;;;;;;;16.80;61.60;;;;;;5038174;28;1513;-68
2024/01/23 04:24:47;;;;;;;;;;;16.80;61.60;;;;;;5037602;28;1458;-66
2024/01/23 04:27:12;;;;;;;;;;;16.80;61.60;;;;;;5038793;28;1963;-66
2024/01/23 04:29:38;;;;;;;;;;;16.80;61.60;;;;;;5038178;28;1335;-67
2024/01/23 04:32:03;;;;;;;;;;;16.80;61.70;;;;;;5036703;28;1501;-69
2024/01/23 04:34:29;;;;;;;;;;;16.80;61.60;;;;;;5038361;28;1793;-67
2024/01/23 04:36:54;;;;;;;;;;;16.80;61.70;;;;;;5040310;28;1463;-66
2024/01/23 04:39:20;;;;;;;;;;;16.80;61.60;;;;;;5040992;28;1462;-69
2024/01/23 04:41:45;;;;;;;;;;;16.80;61.60;;;;;;5037007;28;1672;-67
2024/01/23 04:44:10;;;;;;;;;;;16.80;61.60;;;;;;5039024;28;1727;-67
2024/01/23 04:46:36;;;;;;;;;;;16.80;61.70;;;;;;5037921;28;1961;-67
2024/01/23 04:49:02;;;;;;;;;;;16.80;61.70;;;;;;5038799;28;1500;-68
2024/01/23 04:51:27;;;;;;;;;;;16.80;61.70;;;;;;5039064;28;1556;-68
2024/01/23 04:53:53;;;;;;;;;;;16.80;61.70;;;;;;5068118;28;1470;-67
2024/01/23 04:56:19;;;;;;;;;;;16.80;61.70;;;;;;5037544;28;1693;-67
2024/01/23 04:58:48;;;;;;;;;;;16.80;61.70;;;;;;5070373;28;1646;-67
2024/01/23 05:01:14;;;;;;;;;;;16.80;61.70;;;;;;5037927;28;1444;-67
2024/01/23 05:03:39;;;;;;;;;;;16.80;61.70;;;;;;5039551;28;1278;-67
2024/01/23 05:06:05;;;;;;;;;;;16.80;61.80;;;;;;5036257;28;1914;-67
2024/01/23 05:08:30;;;;;;;;;;;16.80;61.70;;;;;;5037954;28;1267;-67
2024/01/23 05:10:56;;;;;;;;;;;16.80;61.70;;;;;;5039741;28;1517;-67
2024/01/23 05:13:22;;;;;;;;;;;16.80;61.70;;;;;;5039559;28;1531;-67
2024/01/23 05:15:47;;;;;;;;;;;16.80;61.60;;;;;;5036141;28;1315;-67
2024/01/23 05:18:13;;;;;;;;;;;16.80;61.60;;;;;;5075935;28;1268;-67
2024/01/23 05:20:38;;;;;;;;;;;16.90;61.50;;;;;;5038556;28;1346;-67
2024/01/23 05:23:04;;;;;;;;;;;16.90;61.40;;;;;;5042055;28;1526;-66
2024/01/23 05:25:29;;;;;;;;;;;16.90;61.30;;;;;;5039680;28;1564;-68
2024/01/23 05:27:55;;;;;;;;;;;16.90;61.10;;;;;;5041783;28;1978;-68
2024/01/23 05:30:20;;;;;;;;;;;17.00;61.10;;;;;;5039268;28;1408;-68
2024/01/23 05:32:46;;;;;;;;;;;17.00;61.00;;;;;;5039987;28;1505;-68
2024/01/23 05:35:11;;;;;;;;;;;17.00;60.80;;;;;;5072885;28;1481;-67
2024/01/23 05:37:36;;;;;;;;;;;17.10;60.80;;;;;;5042091;28;1298;-68
2024/01/23 05:40:05;;;;;;;;;;;17.10;60.70;;;;;;5039724;28;1372;-67
2024/01/23 05:42:30;;;;;;;;;;;17.10;60.60;;;;;;5072440;28;1798;-68
2024/01/23 05:44:56;;;;;;;;;;;17.10;60.50;;;;;;5044127;28;1356;-68
2024/01/23 05:47:22;;;;;;;;;;;17.20;60.50;;;;;;5040546;28;1909;-67
2024/01/23 05:49:47;;;;;;;;;;;17.20;60.40;;;;;;5043557;28;1309;-67
2024/01/23 05:52:13;;;;;;;;;;;17.20;60.30;;;;;;5038967;28;1280;-66
2024/01/23 05:54:41;;;;;;;;;;;17.20;60.20;;;;;;5066869;28;1839;-67
2024/01/23 05:57:09;;;;;;;;;;;17.20;60.20;;;;;;5039731;28;1880;-67
2024/01/23 05:59:34;;;;;;;;;;;17.20;60.10;;;;;;5043156;28;1283;-67
2024/01/23 06:02:00;;;;;;;;;;;17.20;60.10;;;;;;5042852;28;1500;-67
2024/01/23 06:04:25;;;;;;;;;;;17.30;60.10;;;;;;5040545;28;1504;-67
2024/01/23 06:06:51;;;;;;;;;;;17.30;60.00;;;;;;5040011;28;1910;-67
2024/01/23 06:09:16;;;;;;;;;;;17.30;60.00;;;;;;5037250;28;1497;-68
2024/01/23 06:11:42;;;;;;;;;;;17.30;60.00;;;;;;5040642;28;1442;-68
2024/01/23 06:14:07;;;;;;;;;;;17.30;60.00;;;;;;5040713;28;1554;-67
2024/01/23 06:16:33;;;;;;;;;;;17.30;59.90;;;;;;5039898;28;1406;-68
2024/01/23 06:18:58;;;;;;;;;;;17.30;59.90;;;;;;5041349;28;1677;-68
2024/01/23 06:21:24;;;;;;;;;;;17.30;59.80;;;;;;5038368;28;1466;-68
2024/01/23 06:23:49;;;;;;;;;;;17.30;59.80;;;;;;5072304;28;1337;-68
2024/01/23 06:26:15;;;;;;;;;;;17.30;59.80;;;;;;5039538;28;1894;-68
2024/01/23 06:28:40;;;;;;;;;;;17.40;59.80;;;;;;5037295;28;1296;-68
2024/01/23 06:31:06;;;;;;;;;;;17.40;59.80;;;;;;5035376;28;1320;-68
2024/01/23 06:33:31;;;;;;;;;;;17.40;59.80;;;;;;5041182;28;1510;-68
2024/01/23 06:35:57;;;;;;;;;;;17.40;59.80;;;;;;5039613;28;1421;-68
2024/01/23 06:38:23;;;;;;;;;;;17.40;59.80;;;;;;5040332;28;1560;-68
2024/01/23 06:40:48;;;;;;;;;;;17.40;59.80;;;;;;5038170;28;1490;-68
2024/01/23 06:43:14;;;;;;;;;;;17.40;59.80;;;;;;5072060;28;1491;-67
2024/01/23 06:45:39;;;;;;;;;;;17.40;59.80;;;;;;5037072;28;1505;-68
2024/01/23 06:48:05;;;;;;;;;;;17.40;59.80;;;;;;5025216;28;1969;-68
2024/01/23 06:50:30;;;;;;;;;;;17.40;59.80;;;;;;5039193;28;1472;-68
2024/01/23 06:52:55;;;;;;;;;;;17.40;59.80;;;;;;5040172;28;1139;-68
2024/01/23 06:55:21;;;;;;;;;;;17.40;59.80;;;;;;5043458;28;1697;-68
2024/01/23 06:57:46;;;;;;;;;;;17.40;59.80;;;;;;5040081;28;1526;-68
2024/01/23 07:00:12;;;;;;;;;;;17.40;59.80;;;;;;5041230;28;1387;-68
2024/01/23 07:02:38;;;;;;;;;;;17.40;59.80;;;;;;5039425;28;1458;-68
2024/01/23 07:05:03;;;;;;;;;;;17.40;59.90;;;;;;5071424;28;1583;-67
2024/01/23 07:07:29;;;;;;;;;;;17.30;59.80;;;;;;5041142;28;1918;-68
2024/01/23 07:09:54;;;;;;;;;;;17.30;59.80;;;;;;5037909;28;1343;-68
2024/01/23 07:12:20;;;;;;;;;;;17.40;59.90;;;;;;5040487;28;991;-68
2024/01/23 07:14:46;;;;;;;;;;;17.40;59.90;;;;;;5038641;28;1414;-68
2024/01/23 07:17:11;;;;;;;;;;;17.30;59.90;;;;;;5048580;28;1256;-68
2024/01/23 07:19:37;;;;;;;;;;;17.30;59.90;;;;;;5038681;28;954;-68
2024/01/23 07:22:03;;;;;;;;;;;17.30;59.90;;;;;;5036474;28;1533;-68
2024/01/23 07:24:28;;;;;;;;;;;17.30;59.90;;;;;;5041122;28;1407;-68
2024/01/23 07:26:53;;;;;;;;;;;17.30;59.90;;;;;;5039893;28;1906;-68
2024/01/23 07:29:22;;;;;;;;;;;17.30;59.90;;;;;;5038510;28;1612;-67
2024/01/23 07:31:47;;;;;;;;;;;17.30;60.00;;;;;;5037063;28;1450;-67
2024/01/23 07:34:12;;;;;;;;;;;17.30;60.00;;;;;;5038377;28;1403;-67
2024/01/23 07:36:38;;;;;;;;;;;17.30;60.00;;;;;;5036277;28;1276;-68
2024/01/23 07:39:05;;;;;;;;;;;17.30;60.00;;;;;;5038864;28;1451;-69
2024/01/23 07:41:30;;;;;;;;;;;17.30;60.10;;;;;;5038242;28;1792;-70
2024/01/23 07:43:56;;;;;;;;;;;17.30;60.10;;;;;;5040091;28;903;-70
2024/01/23 07:46:22;;;;;;;;;;;17.30;60.10;;;;;;5041527;28;1902;-70
2024/01/23 07:48:48;;;;;;;;;;;17.30;60.10;;;;;;5038014;28;1372;-70
2024/01/23 07:51:14;;;;;;;;;;;17.30;60.10;;;;;;5039452;28;1501;-70
2024/01/23 07:53:39;;;;;;;;;;;17.30;60.10;;;;;;5040776;28;914;-69
2024/01/23 07:56:05;;;;;;;;;;;17.30;60.20;;;;;;5036708;28;1483;-70
2024/01/23 07:58:30;;;;;;;;;;;17.30;60.20;;;;;;5021562;28;1663;-70
2024/01/23 08:00:56;;;;;;;;;;;17.30;60.20;;;;;;5071570;28;1448;-67
2024/01/23 08:03:24;;;;;;;;;;;17.30;60.20;;;;;;5039100;28;1292;-66
2024/01/23 08:05:50;;;;;;;;;;;17.20;60.20;;;;;;5036789;28;1406;-69
2024/01/23 08:08:16;;;;;;;;;;;17.30;60.30;;;;;;5039198;28;1963;-70
2024/01/23 08:10:41;;;;;;;;;;;17.20;60.20;;;;;;5042645;28;1562;-68
2024/01/23 08:13:07;;;;;;;;;;;17.30;60.20;;;;;;5069315;28;1486;-69
2024/01/23 08:15:34;;;;;;;;;;;17.20;61.00;;;;;;5038252;28;1688;-69
2024/01/23 08:18:03;;;;;;;;;;;17.20;60.20;;;;;;5036150;28;986;-69
2024/01/23 08:20:29;;;;;;;;;;;17.20;60.30;;;;;;5037343;28;2155;-68
2024/01/23 08:22:55;;;;;;;;;;;17.20;60.20;;;;;;5035330;28;1917;-70
2024/01/23 08:25:20;;;;;;;;;;;17.20;60.30;;;;;;5037778;28;1371;-70
2024/01/23 08:27:46;;;;;;;;;;;17.20;60.30;;;;;;5036279;28;1957;-69
2024/01/23 08:30:11;;;;;;;;;;;17.20;60.30;;;;;;5045525;28;1442;-68
2024/01/23 08:32:37;;;;;;;;;;;17.20;60.30;;;;;;5035532;28;1433;-69
2024/01/23 08:35:03;;;;;;;;;;;17.20;60.30;;;;;;5040087;28;1375;-68
2024/01/23 08:37:28;;;;;;;;;;;17.20;60.40;;;;;;5038380;28;1488;-67
2024/01/23 08:39:54;;;;;;;;;;;17.20;60.30;;;;;;5070383;28;1355;-68
2024/01/23 08:42:19;;;;;;;;;;;17.20;60.30;;;;;;5039811;28;1361;-68
2024/01/23 08:44:47;;;;;;;;;;;17.20;60.30;;;;;;5038234;28;1541;-67
2024/01/23 08:47:15;;;;;;;;;;;17.20;60.30;;;;;;5037938;28;1922;-68
2024/01/23 08:49:41;;;;;;;;;;;17.30;60.30;;;;;;5036457;28;1494;-68
2024/01/23 08:52:06;;;;;;;;;;;17.30;60.20;;;;;;5042283;28;1451;-66
2024/01/23 08:54:33;;;;;;;;;;;17.30;60.20;;;;;;5041964;28;1742;-69
2024/01/23 08:56:59;;;;;;;;;;;17.30;60.20;;;;;;5041915;28;1901;-69
2024/01/23 08:59:24;;;;;;;;;;;17.30;60.10;;;;;;5041256;28;1450;-69
2024/01/23 09:01:50;;;;;;;;;;;17.30;60.10;;;;;;5065587;28;1452;-69
2024/01/23 09:04:15;;;;;;;;;;;17.30;60.00;;;;;;5045514;28;1473;-68
2024/01/23 09:06:41;;;;;;;;;;;17.30;60.00;;;;;;5041384;28;1977;-69
2024/01/23 09:09:06;;;;;;;;;;;17.30;60.00;;;;;;5041706;28;1566;-70
2024/01/23 09:11:32;;;;;;;;;;;17.30;60.00;;;;;;5041807;28;1212;-69
2024/01/23 09:13:58;;;;;;;;;;;17.30;60.00;;;;;;5041369;28;1415;-69
2024/01/23 09:16:23;;;;;;;;;;;17.30;60.10;;;;;;5043164;28;1714;-69
2024/01/23 09:18:49;;;;;;;;;;;17.30;60.10;;;;;;5041980;28;1010;-69
2024/01/23 09:21:15;;;;;;;;;;;17.30;60.80;;;;;;5043312;28;1589;-69
2024/01/23 09:23:40;;;;;;;;;;;17.30;60.10;;;;;;5040148;28;1561;-69
2024/01/23 09:26:05;;;;;;;;;;;17.30;60.10;;;;;;5070644;28;1299;-69
2024/01/23 09:28:31;;;;;;;;;;;17.30;60.10;;;;;;5038066;28;1965;-68
2024/01/23 09:30:56;;;;;;;;;;;17.30;60.10;;;;;;5041762;28;1279;-69
2024/01/23 09:33:22;;;;;;;;;;;17.30;60.00;;;;;;5042258;28;1520;-68
2024/01/23 09:35:48;;;;;;;;;;;17.30;60.00;;;;;;5043592;28;1585;-68
2024/01/23 09:38:13;;;;;;;;;;;17.40;60.10;;;;;;5042193;28;1420;-68
2024/01/23 09:40:40;;;;;;;;;;;17.30;60.00;;;;;;5039362;28;1482;-67
2024/01/23 09:43:06;;;;;;;;;;;17.30;59.90;;;;;;5072162;28;1473;-68
2024/01/23 09:45:32;;;;;;;;;;;17.40;60.00;;;;;;5071370;28;1373;-68
2024/01/23 09:47:57;;;;;;;;;;;17.40;60.60;;;;;;5039945;28;1965;-69
2024/01/23 09:50:24;;;;;;;;;;;17.40;59.80;;;;;;5040252;28;1197;-68
2024/01/23 09:52:50;;;;;;;;;;;17.40;60.60;;;;;;5042167;28;1472;-67
2024/01/23 09:55:15;;;;;;;;;;;17.40;59.80;;;;;;5039052;28;1867;-67
2024/01/23 09:57:42;;;;;;;;;;;17.40;59.80;;;;;;5044117;28;1582;-68
2024/01/23 10:00:11;;;;;;;;;;;17.40;59.70;;;;;;5040799;28;1516;-68
2024/01/23 10:02:38;;;;;;;;;;;17.40;59.70;;;;;;5042697;28;1241;-69
2024/01/23 10:05:03;;;;;;;;;;;17.50;59.70;;;;;;5038309;28;1502;-69
2024/01/23 10:07:29;;;;;;;;;;;17.50;59.70;;;;;;5036507;28;1906;-68
2024/01/23 10:09:58;;;;;;;;;;;17.50;59.60;;;;;;5032292;28;1321;-69
2024/01/23 10:12:23;;;;;;;;;;;17.50;59.50;;;;;;5042774;28;1247;-68
2024/01/23 10:14:49;;;;;;;;;;;17.50;59.50;;;;;;5074501;28;1486;-69
2024/01/23 10:17:14;;;;;;;;;;;17.50;59.50;;;;;;5037875;28;1418;-67
2024/01/23 10:19:40;;;;;;;;;;;17.50;59.50;;;;;;5037805;28;1923;-68
2024/01/23 10:22:05;;;;;;;;;;;17.50;59.50;;;;;;5040467;28;1331;-68
2024/01/23 10:24:31;;;;;;;;;;;17.50;59.50;;;;;;5039939;28;1316;-68
2024/01/23 10:26:57;;;;;;;;;;;17.50;59.50;;;;;;5074998;28;1934;-67
2024/01/23 10:29:22;;;;;;;;;;;17.50;59.50;;;;;;5041885;28;1523;-67
2024/01/23 10:31:48;;;;;;;;;;;17.50;59.50;;;;;;5038072;28;1980;-66
2024/01/23 10:34:13;;;;;;;;;;;17.50;59.50;;;;;;5042533;28;1467;-69
2024/01/23 10:36:42;;;;;;;;;;;17.50;59.60;;;;;;5042358;28;1439;-68
2024/01/23 10:39:08;;;;;;;;;;;17.50;59.60;;;;;;5073949;28;1545;-69
2024/01/23 10:41:33;;;;;;;;;;;17.50;59.60;;;;;;5042894;28;1866;-68
2024/01/23 10:43:59;;;;;;;;;;;17.50;59.60;;;;;;5038785;28;1299;-68
2024/01/23 10:46:24;;;;;;;;;;;17.50;59.60;;;;;;5040213;28;1906;-68
2024/01/23 10:48:50;;;;;;;;;;;17.50;59.60;;;;;;5040605;28;1548;-69
2024/01/23 10:51:18;;;;;;;;;;;17.50;60.20;;;;;;5040784;28;1391;-68
2024/01/23 10:54:13;;;;;;;;;;;17.50;59.50;;;;;;5042403;28;1585;-70
2024/01/23 10:56:43;;;;;;;;;;;17.50;59.50;;;;;;5053991;28;1710;-68
2024/01/23 10:59:13;;;;;;;;;;;17.50;59.50;;;;;;5069688;28;1613;-68
2024/01/23 11:01:38;;;;;;;;;;;17.50;59.50;;;;;;5039509;28;1489;-66
2024/01/23 11:04:04;;;;;;;;;;;17.60;59.50;;;;;;5071292;28;1300;-66
2024/01/23 11:06:30;;;;;;;;;;;17.60;59.40;;;;;;5047733;28;1910;-68
2024/01/23 11:09:22;;;;;;;;;;;17.60;59.40;;;;;;5047768;28;1128;-67
2024/01/23 11:12:03;;;;;;;;;;;17.60;59.40;;;;;;5042650;28;1502;-68
2024/01/23 11:14:30;;;;;;;;;;;17.60;59.40;;;;;;5032024;28;1496;-69
2024/01/23 11:17:02;;;;;;;;;;;17.60;59.40;;;;;;5039666;28;1265;-66
2024/01/23 11:19:28;;;;;;;;;;;17.60;59.40;;;;;;5040086;28;1629;-67
2024/01/23 11:22:00;;;;;;;;;;;17.60;59.40;;;;;;5040046;28;1537;-68
2024/01/23 11:24:37;;;;;;;;;;;17.60;59.40;;;;;;5036268;28;1902;-68
2024/01/23 11:27:04;;;;;;;;;;;17.60;59.40;;;;;;5039998;28;1967;-68
2024/01/23 11:29:29;;;;;;;;;;;17.60;59.50;;;;;;5041960;28;1513;-67
2024/01/23 11:31:55;;;;;;;;;;;17.60;60.10;;;;;;5066269;28;1932;-69
2024/01/23 11:34:23;;;;;;;;;;;17.60;59.50;;;;;;5037218;28;1287;-67
2024/01/23 11:36:49;;;;;;;;;;;17.50;59.50;;;;;;5051745;28;1835;-69
2024/01/23 11:39:15;;;;;;;;;;;17.50;59.50;;;;;;5071654;28;1576;-68
2024/01/23 11:41:45;;;;;;;;;;;17.50;59.50;;;;;;5037096;28;1595;-68
2024/01/23 11:44:11;;;;;;;;;;;17.50;59.50;;;;;;5037436;28;1559;-67
2024/01/23 11:46:36;;;;;;;;;;;17.50;59.60;;;;;;5039427;28;1902;-68
2024/01/23 11:49:02;;;;;;;;;;;17.50;59.60;;;;;;5035390;28;1272;-67
2024/01/23 11:51:27;;;;;;;;;;;17.50;59.60;;;;;;5036685;28;1508;-69
2024/01/23 11:53:55;;;;;;;;;;;17.50;59.60;;;;;;5046700;28;1367;-67
2024/01/23 11:56:21;;;;;;;;;;;17.50;59.70;;;;;;5023554;28;1445;-68
2024/01/23 11:58:46;;;;;;;;;;;17.50;59.70;;;;;;5038551;28;980;-67
2024/01/23 12:01:12;;;;;;;;;;;17.50;59.70;;;;;;5038748;28;1240;-69
2024/01/23 12:03:44;;;;;;;;;;;17.50;59.70;;;;;;5041627;28;1540;-68
2024/01/23 12:06:10;;;;;;;;;;;17.50;59.70;;;;;;5041937;28;1616;-68
2024/01/23 12:08:35;;;;;;;;;;;17.40;59.70;;;;;;5023270;28;1910;-67
2024/01/23 12:11:01;;;;;;;;;;;17.50;59.80;;;;;;5046307;28;1671;-67
2024/01/23 12:13:26;;;;;;;;;;;17.50;59.80;;;;;;5061451;28;1275;-69
2024/01/23 12:15:52;;;;;;;;;;;17.50;59.80;;;;;;5070963;28;1578;-68
2024/01/23 12:18:24;;;;;;;;;;;17.40;59.70;;;;;;5033788;28;895;-68
2024/01/23 12:20:50;;;;;;;;;;;17.50;59.80;;;;;;5069564;28;1317;-68
2024/01/23 12:23:16;;;;;;;;;;;17.40;59.80;;;;;;5037198;28;860;-68
2024/01/23 12:25:41;;;;;;;;;;;17.40;59.80;;;;;;5028877;28;1298;-67
2024/01/23 12:28:07;;;;;;;;;;;17.40;60.50;;;;;;5072856;28;1952;-69
2024/01/23 12:30:32;;;;;;;;;;;17.40;59.80;;;;;;5041035;28;1423;-68
2024/01/23 12:32:59;;;;;;;;;;;17.40;59.80;;;;;;5037579;28;1445;-67
2024/01/23 12:35:24;;;;;;;;;;;17.40;59.90;;;;;;5037090;28;1418;-68
2024/01/23 12:37:50;;;;;;;;;;;17.40;59.80;;;;;;5040083;28;1510;-68
2024/01/23 12:40:16;;;;;;;;;;;17.40;59.90;;;;;;5054766;28;1361;-68
2024/01/23 12:42:45;;;;;;;;;;;17.40;59.90;;;;;;5035848;28;1434;-67
2024/01/23 12:45:11;;;;;;;;;;;17.40;59.90;;;;;;5039067;28;1264;-67
2024/01/23 12:47:37;;;;;;;;;;;17.40;59.90;;;;;;5026418;28;1899;-68
2024/01/23 12:50:03;;;;;;;;;;;17.40;59.90;;;;;;5035625;28;1579;-67
2024/01/23 12:52:29;;;;;;;;;;;17.40;59.90;;;;;;5028372;28;1368;-68
2024/01/23 12:54:54;;;;;;;;;;;17.40;59.90;;;;;;5035818;28;1288;-68
2024/01/23 12:57:20;;;;;;;;;;;17.40;59.90;;;;;;5036543;28;880;-68
2024/01/23 12:59:45;;;;;;;;;;;17.40;59.90;;;;;;5033808;28;1545;-68
2024/01/23 13:02:11;;;;;;;;;;;17.40;60.00;;;;;;5039210;28;1293;-68
2024/01/23 13:04:36;;;;;;;;;;;17.40;60.00;;;;;;5038708;28;1291;-68
2024/01/23 13:07:02;;;;;;;;;;;17.40;60.00;;;;;;5039661;28;1965;-68
2024/01/23 13:09:28;;;;;;;;;;;17.40;60.00;;;;;;5037238;28;1238;-68
2024/01/23 13:11:53;;;;;;;;;;;17.40;60.00;;;;;;5036585;28;1508;-68
2024/01/23 13:14:22;;;;;;;;;;;17.40;59.90;;;;;;5036319;28;1412;-68
2024/01/23 13:16:47;;;;;;;;;;;17.40;59.90;;;;;;5039128;28;1365;-68
2024/01/23 13:19:13;;;;;;;;;;;17.40;59.90;;;;;;5017806;28;1421;-68
2024/01/23 13:21:38;;;;;;;;;;;17.40;59.90;;;;;;5021982;28;2216;-68
2024/01/23 13:24:04;;;;;;;;;;;17.40;59.90;;;;;;5035468;28;1458;-68
2024/01/23 13:26:29;;;;;;;;;;;17.40;59.80;;;;;;5045397;28;1922;-68
2024/01/23 13:28:55;;;;;;;;;;;17.40;59.80;;;;;;5036740;28;1339;-68
2024/01/23 13:31:21;;;;;;;;;;;17.40;59.80;;;;;;5045968;28;1473;-68
2024/01/23 13:33:47;;;;;;;;;;;17.40;59.80;;;;;;5039343;28;1045;-69
2024/01/23 13:36:13;;;;;;;;;;;17.50;59.80;;;;;;5036718;28;1300;-68
2024/01/23 13:38:38;;;;;;;;;;;17.50;59.80;;;;;;5041380;28;1249;-68
2024/01/23 13:41:04;;;;;;;;;;;17.50;59.70;;;;;;5040204;28;1449;-68
2024/01/23 13:43:30;;;;;;;;;;;17.50;59.70;;;;;;5041120;28;1381;-68
2024/01/23 13:45:57;;;;;;;;;;;17.50;59.70;;;;;;5042209;28;1434;-68
2024/01/23 13:48:22;;;;;;;;;;;17.50;59.70;;;;;;5070831;28;1970;-68
2024/01/23 13:50:48;;;;;;;;;;;17.50;59.70;;;;;;5042642;28;1404;-68
2024/01/23 13:53:13;;;;;;;;;;;17.50;59.60;;;;;;5042998;28;1309;-68
2024/01/23 13:55:39;;;;;;;;;;;17.50;59.60;;;;;;5040058;28;1394;-68
2024/01/23 13:58:05;;;;;;;;;;;17.50;59.60;;;;;;5037902;28;1924;-68
2024/01/23 14:00:31;;;;;;;;;;;17.50;59.60;;;;;;5042078;28;1662;-68
2024/01/23 14:02:56;;;;;;;;;;;17.50;59.60;;;;;;5027409;28;1535;-68
2024/01/23 14:05:22;;;;;;;;;;;17.50;59.60;;;;;;5071523;28;1638;-68
2024/01/23 14:07:48;;;;;;;;;;;17.50;59.50;;;;;;5073440;28;1910;-69
2024/01/23 14:10:16;;;;;;;;;;;17.50;59.60;;;;;;5041128;28;1416;-69
2024/01/23 14:12:45;;;;;;;;;;;17.50;59.60;;;;;;5040419;28;1536;-68
2024/01/23 14:15:11;;;;;;;;;;;17.50;59.60;;;;;;5043885;28;1733;-68
2024/01/23 14:17:37;;;;;;;;;;;17.50;59.70;;;;;;5076211;28;1387;-69
2024/01/23 14:20:04;;;;;;;;;;;17.50;59.70;;;;;;5042822;28;1535;-68
2024/01/23 14:22:30;;;;;;;;;;;17.50;59.70;;;;;;5072122;28;1503;-69